Time;durP1;ratioP1;P1;durP2;ratioP2;P2;SDS_P1;SDS_P2;PMS_P1;PMS_P2;Temp;Humidity;BMP_temperature;BMP_pressure;BME280_temperature;BME280_humidity;BME280_pressure;Samples;Min_cycle;Max_cycle;Signal;HPM_P1;HPM_P2
2021/11/27 00:02:14;;;;;;;6.57;5.87;;;;;;;2.60;80.31;93298.09;4994373;28;20207;-84
2021/11/27 00:04:41;;;;;;;6.93;6.00;;;;;;;2.63;80.27;93302.03;4994099;28;20230;-84
2021/11/27 00:07:07;;;;;;;7.57;5.77;;;;;;;2.64;80.02;93296.78;4994129;28;20238;-84
2021/11/27 00:09:36;;;;;;;8.17;6.63;;;;;;;2.61;79.75;93286.97;4994274;28;20219;-84
2021/11/27 00:12:03;;;;;;;7.83;6.10;;;;;;;2.63;79.62;93281.72;4994092;28;20671;-84
2021/11/27 00:14:37;;;;;;;6.70;5.67;;;;;;;2.67;79.25;93282.91;5000750;28;20203;-84
2021/11/27 00:17:04;;;;;;;6.53;5.83;;;;;;;2.61;79.34;93276.81;4996158;28;20207;-84
2021/11/27 00:19:30;;;;;;;7.33;5.90;;;;;;;2.55;79.75;93275.00;4994872;28;20250;-84
2021/11/27 00:21:57;;;;;;;5.80;5.20;;;;;;;2.57;79.68;93269.75;4994316;28;20206;-84
2021/11/27 00:24:23;;;;;;;6.17;5.57;;;;;;;2.58;79.48;93267.03;4994313;28;20257;-84
2021/11/27 00:26:49;;;;;;;7.50;5.53;;;;;;;2.51;79.77;93266.19;4994820;28;20209;-84
2021/11/27 00:29:16;;;;;;;6.30;5.70;;;;;;;2.50;79.76;93264.63;4994253;28;20208;-84
2021/11/27 00:31:44;;;;;;;6.60;5.90;;;;;;;2.42;79.76;93263.00;4994101;28;20207;-84
2021/11/27 00:34:13;;;;;;;6.57;5.63;;;;;;;2.43;79.87;93256.97;4993607;28;20200;-84
2021/11/27 00:36:40;;;;;;;5.83;5.23;;;;;;;2.48;79.89;93248.00;4994458;28;20206;-84
2021/11/27 00:39:07;;;;;;;6.47;5.30;;;;;;;2.45;79.63;93245.84;4994431;28;20218;-84
2021/11/27 00:41:33;;;;;;;6.67;5.33;;;;;;;2.42;79.75;93244.44;4996325;28;20214;-84
2021/11/27 00:44:00;;;;;;;6.23;5.63;;;;;;;2.43;79.55;93243.47;4996158;28;20207;-84
2021/11/27 00:46:26;;;;;;;5.93;5.00;;;;;;;2.44;79.30;93237.44;4995973;28;20234;-84
2021/11/27 00:48:54;;;;;;;6.33;5.43;;;;;;;2.38;79.41;93231.34;4999123;28;20549;-86
2021/11/27 00:51:23;;;;;;;5.33;4.50;;;;;;;2.38;79.48;93236.41;4996005;28;20219;-85
2021/11/27 00:53:50;;;;;;;4.97;4.43;;;;;;;2.34;79.07;93230.13;4997497;28;20195;-84
2021/11/27 00:56:18;;;;;;;5.67;4.37;;;;;;;2.33;78.82;93231.09;5000433;28;20203;-85
2021/11/27 00:58:47;;;;;;;4.73;4.23;;;;;;;2.30;79.02;93228.16;4999752;28;20219;-84
2021/11/27 01:01:18;;;;;;;4.70;4.10;;;;;;;2.31;79.20;93220.34;4999903;28;20227;-85
2021/11/27 01:03:46;;;;;;;4.70;3.70;;;;;;;2.37;78.60;93224.69;4999373;28;20211;-84
2021/11/27 01:06:19;;;;;;;4.87;4.30;;;;;;;2.45;78.11;93216.16;5001530;28;20227;-85
2021/11/27 01:08:46;;;;;;;4.60;4.10;;;;;;;2.45;77.39;93220.44;5001234;28;20249;-85
2021/11/27 01:11:16;;;;;;;4.37;3.93;;;;;;;2.49;77.26;93230.06;5002040;28;20255;-85
2021/11/27 01:13:46;;;;;;;4.80;4.00;;;;;;;2.38;78.01;93228.00;5001668;28;20203;-84
2021/11/27 01:16:13;;;;;;;4.40;4.00;;;;;;;2.34;77.91;93222.50;5016995;28;20195;-84
2021/11/27 01:18:39;;;;;;;4.30;3.80;;;;;;;2.36;77.84;93219.78;5000395;28;20223;-85
2021/11/27 01:21:10;;;;;;;4.97;3.70;;;;;;;2.37;77.94;93216.28;5001105;28;20212;-84
2021/11/27 01:23:40;;;;;;;4.57;3.90;;;;;;;2.29;78.17;93221.50;4999929;28;20714;-84
2021/11/27 01:26:07;;;;;;;3.93;3.53;;;;;;;2.34;78.01;93219.97;4999200;28;20215;-84
2021/11/27 01:28:33;;;;;;;4.17;3.73;;;;;;;2.36;77.81;93218.03;4999933;28;20203;-85
2021/11/27 01:31:02;;;;;;;5.00;3.80;;;;;;;2.40;77.88;93223.53;4999300;28;20219;-84
2021/11/27 01:33:30;;;;;;;4.03;3.47;;;;;;;2.45;77.28;93221.22;4999491;28;20204;-84
2021/11/27 01:35:57;;;;;;;4.17;3.37;;;;;;;2.54;77.10;93216.78;4998218;28;20662;-85
2021/11/27 01:38:23;;;;;;;3.77;3.30;;;;;;;2.57;76.51;93216.41;4997955;28;20332;-84
2021/11/27 01:40:52;;;;;;;3.67;3.10;;;;;;;2.61;76.71;93215.06;4998642;28;20231;-85
2021/11/27 01:43:18;;;;;;;3.63;3.23;;;;;;;2.63;76.43;93218.22;4999399;28;20215;-84
2021/11/27 01:45:45;;;;;;;4.33;3.60;;;;;;;2.65;76.64;93232.31;4998650;28;20245;-84
2021/11/27 01:48:14;;;;;;;4.77;3.57;;;;;;;2.61;76.01;93220.16;4998028;28;20203;-84
2021/11/27 01:50:45;;;;;;;3.93;3.50;;;;;;;2.67;76.48;93221.97;4997479;28;20227;-85
2021/11/27 01:53:13;;;;;;;4.70;3.90;;;;;;;2.67;76.12;93207.50;4997494;28;20876;-85
2021/11/27 01:55:40;;;;;;;3.63;3.20;;;;;;;2.65;76.79;93211.19;4997634;28;20203;-84
2021/11/27 01:58:08;;;;;;;3.63;3.30;;;;;;;2.65;76.33;93213.75;4997028;28;20670;-85
2021/11/27 02:00:38;;;;;;;3.53;3.20;;;;;;;2.54;76.55;93202.31;4997128;28;20226;-85
2021/11/27 02:03:05;;;;;;;4.63;3.67;;;;;;;2.52;77.14;93201.72;4996983;28;20207;-85
2021/11/27 02:05:32;;;;;;;3.40;3.10;;;;;;;2.45;77.46;93200.91;4977270;28;20220;-85
2021/11/27 02:07:58;;;;;;;3.53;3.00;;;;;;;2.43;77.02;93182.53;4995167;28;20235;-85
2021/11/27 02:10:26;;;;;;;4.17;3.27;;;;;;;2.42;77.63;93186.06;4996922;28;20223;-85
2021/11/27 02:12:52;;;;;;;3.30;3.00;;;;;;;2.42;77.39;93184.28;4996674;28;20662;-84
2021/11/27 02:15:21;;;;;;;3.20;2.90;;;;;;;2.43;76.85;93178.25;5003161;28;20207;-85
2021/11/27 02:17:48;;;;;;;4.60;3.20;;;;;;;2.39;77.22;93166.91;4996908;28;20195;-85
2021/11/27 02:20:15;;;;;;;3.03;2.73;;;;;;;2.41;77.08;93166.72;4996263;28;20243;-85
2021/11/27 02:22:43;;;;;;;3.20;2.90;;;;;;;2.40;77.00;93173.53;4977719;28;20200;-84
2021/11/27 02:25:14;;;;;;;3.47;2.83;;;;;;;2.51;76.84;93172.22;4980902;28;20196;-85
2021/11/27 02:27:43;;;;;;;3.50;3.10;;;;;;;2.53;76.63;93164.41;4996654;28;20700;-84
2021/11/27 02:30:12;;;;;;;3.30;2.60;;;;;;;2.57;75.80;93163.06;4995800;28;20239;-85
2021/11/27 02:32:38;;;;;;;2.40;2.20;;;;;;;2.65;75.58;93152.78;4997158;28;20660;-85
2021/11/27 02:35:06;;;;;;;3.60;2.90;;;;;;;2.68;75.48;93154.94;4997222;28;20202;-85
2021/11/27 02:37:32;;;;;;;2.77;2.50;;;;;;;2.78;75.38;93142.66;4996586;28;20208;-84
2021/11/27 02:40:00;;;;;;;2.30;2.10;;;;;;;2.78;75.49;93140.13;4994765;28;20223;-85
2021/11/27 02:42:27;;;;;;;2.77;2.57;;;;;;;2.71;75.10;93136.78;4995848;28;20215;-84
2021/11/27 02:44:53;;;;;;;2.77;2.50;;;;;;;2.74;74.81;93133.84;4977570;28;20205;-85
2021/11/27 02:47:20;;;;;;;3.23;2.23;;;;;;;2.88;74.93;93132.16;4996104;28;20229;-84
2021/11/27 02:49:46;;;;;;;2.40;2.20;;;;;;;2.90;74.45;93120.81;4994884;28;20242;-85
2021/11/27 02:52:13;;;;;;;2.23;2.03;;;;;;;2.78;74.52;93130.75;4996542;28;20235;-85
2021/11/27 02:54:40;;;;;;;2.63;2.30;;;;;;;2.70;75.04;93123.28;4994713;28;20234;-85
2021/11/27 02:57:08;;;;;;;2.40;2.20;;;;;;;2.56;75.84;93114.03;4995756;28;20218;-85
2021/11/27 02:59:36;;;;;;;2.73;2.13;;;;;;;2.56;76.00;93113.25;4995256;28;20639;-85
2021/11/27 03:02:04;;;;;;;2.33;2.13;;;;;;;2.61;76.07;93116.03;4995554;28;20195;-85
2021/11/27 03:04:35;;;;;;;2.43;2.07;;;;;;;2.60;76.34;93117.78;4994973;28;20211;-84
2021/11/27 03:07:02;;;;;;;2.43;2.23;;;;;;;2.69;75.84;93118.41;4995359;28;20368;-85
2021/11/27 03:09:29;;;;;;;2.63;2.30;;;;;;;2.73;75.96;93117.03;4995652;28;20200;-85
2021/11/27 03:11:57;;;;;;;2.33;2.10;;;;;;;2.67;75.95;93110.97;4995241;28;20209;-85
2021/11/27 03:14:27;;;;;;;2.63;2.27;;;;;;;2.64;76.92;93113.13;5001841;28;20290;-85
2021/11/27 03:16:56;;;;;;;2.73;2.00;;;;;;;2.58;77.38;93096.88;5002019;28;20223;-84
2021/11/27 03:19:23;;;;;;;2.40;2.10;;;;;;;2.56;76.99;93106.44;4996731;28;20195;-85
2021/11/27 03:21:50;;;;;;;2.87;2.20;;;;;;;2.56;77.61;93105.66;4994688;28;20331;-85
2021/11/27 03:24:16;;;;;;;2.47;2.23;;;;;;;2.57;77.31;93100.38;4996100;28;20210;-85
2021/11/27 03:26:44;;;;;;;2.10;1.90;;;;;;;2.60;76.81;93109.38;5000059;28;20227;-85
2021/11/27 03:29:13;;;;;;;2.43;2.23;;;;;;;2.59;77.19;93108.59;4998480;28;20211;-85
2021/11/27 03:31:41;;;;;;;2.50;2.30;;;;;;;2.67;77.11;93105.13;4998411;28;20195;-85
2021/11/27 03:34:07;;;;;;;2.40;1.60;;;;;;;2.67;76.34;93107.66;4999298;28;20203;-85
2021/11/27 03:36:34;;;;;;;2.40;2.20;;;;;;;2.74;76.60;93109.25;4997838;28;20206;-85
2021/11/27 03:39:01;;;;;;;2.20;2.00;;;;;;;2.78;76.11;93107.09;4997282;28;20203;-85
2021/11/27 03:41:27;;;;;;;2.13;1.93;;;;;;;2.82;76.30;93107.50;4996923;28;20721;-85
2021/11/27 03:43:54;;;;;;;1.80;1.70;;;;;;;2.80;76.39;93110.25;4997498;28;20208;-85
2021/11/27 03:46:21;;;;;;;2.20;2.00;;;;;;;2.85;76.25;93107.94;4996261;28;20224;-85
2021/11/27 03:48:49;;;;;;;3.30;1.80;;;;;;;2.87;76.00;93098.34;5007535;28;20207;-85
2021/11/27 03:51:19;;;;;;;2.53;2.10;;;;;;;2.84;76.27;93100.50;5012447;28;20232;-85
2021/11/27 03:53:46;;;;;;;2.10;1.90;;;;;;;2.80;76.29;93102.63;4997372;28;20563;-84
2021/11/27 03:56:15;;;;;;;2.40;1.87;;;;;;;2.77;76.52;93096.16;4995903;28;20200;-85
2021/11/27 03:58:41;;;;;;;2.00;1.90;;;;;;;2.79;76.77;93088.34;4996900;28;20199;-85
2021/11/27 04:01:10;;;;;;;2.33;2.13;;;;;;;2.76;77.17;93088.72;4997164;28;20726;-85
2021/11/27 04:03:37;;;;;;;2.20;2.00;;;;;;;2.85;77.02;93092.69;4996538;28;20203;-85
2021/11/27 04:06:06;;;;;;;2.50;2.00;;;;;;;2.88;76.67;93091.53;4995053;28;20238;-85
2021/11/27 04:08:33;;;;;;;2.00;1.90;;;;;;;2.86;76.48;93098.53;4997173;28;20663;-85
2021/11/27 04:11:00;;;;;;;2.90;2.17;;;;;;;2.81;76.66;93096.56;4996170;28;20211;-85
2021/11/27 04:13:26;;;;;;;2.40;2.20;;;;;;;2.85;76.46;93095.22;4976781;28;20576;-85
2021/11/27 04:15:53;;;;;;;2.60;2.20;;;;;;;2.78;77.30;93096.94;5005577;28;20203;-85
2021/11/27 04:18:20;;;;;;;3.07;2.40;;;;;;;2.81;77.18;93086.41;4995938;28;20234;-85
2021/11/27 04:20:47;;;;;;;2.50;2.30;;;;;;;2.76;77.06;93094.59;4994978;28;20757;-85
2021/11/27 04:23:16;;;;;;;2.50;2.30;;;;;;;2.85;77.27;93089.34;4995128;28;20678;-85
2021/11/27 04:25:42;;;;;;;3.07;2.40;;;;;;;2.85;76.96;93086.81;4994587;28;20191;-85
2021/11/27 04:28:09;;;;;;;3.23;2.93;;;;;;;2.81;77.55;93085.63;4997161;28;20203;-85
2021/11/27 04:30:36;;;;;;;2.93;2.70;;;;;;;2.86;77.56;93080.75;4999360;28;20231;-85
2021/11/27 04:33:02;;;;;;;3.33;2.87;;;;;;;2.85;77.24;93085.06;4999016;28;20211;-85
2021/11/27 04:35:31;;;;;;;3.80;3.13;;;;;;;2.82;77.55;93074.50;4998442;28;20226;-85
2021/11/27 04:37:58;;;;;;;2.77;2.57;;;;;;;2.80;77.85;93076.44;4998439;28;20195;-84
2021/11/27 04:40:27;;;;;;;3.03;2.73;;;;;;;2.78;78.27;93081.69;5003896;28;20305;-84
2021/11/27 04:42:54;;;;;;;3.27;2.87;;;;;;;2.85;77.64;93085.06;5015479;28;20188;-85
2021/11/27 04:45:21;;;;;;;3.30;3.00;;;;;;;2.90;77.59;93080.16;4999222;28;20580;-85
2021/11/27 04:47:47;;;;;;;3.30;3.00;;;;;;;2.91;77.20;93091.13;4998424;28;20541;-85
2021/11/27 04:50:16;;;;;;;3.20;2.90;;;;;;;2.86;77.87;93081.53;4998461;28;20231;-85
2021/11/27 04:52:42;;;;;;;3.33;3.00;;;;;;;2.91;77.65;93086.81;4998020;28;20607;-85
2021/11/27 04:55:10;;;;;;;3.43;3.13;;;;;;;2.92;77.84;93085.06;4997993;28;20238;-85
2021/11/27 04:57:38;;;;;;;3.50;3.20;;;;;;;2.88;78.14;93091.53;4999022;28;20207;-85
2021/11/27 05:00:08;;;;;;;3.27;2.90;;;;;;;2.89;78.19;93096.38;4998384;28;20231;-85
2021/11/27 05:02:35;;;;;;;3.00;2.77;;;;;;;2.99;77.41;93094.28;4999287;28;20207;-84
2021/11/27 05:05:01;;;;;;;3.23;2.93;;;;;;;2.92;78.09;93088.38;4999775;28;20204;-84
2021/11/27 05:07:28;;;;;;;3.30;3.00;;;;;;;2.95;77.65;93082.13;4999117;28;20231;-85
2021/11/27 05:09:55;;;;;;;4.13;3.10;;;;;;;2.92;77.69;93082.53;4999637;28;20220;-84
2021/11/27 05:12:22;;;;;;;3.43;3.13;;;;;;;2.88;78.47;93084.69;5000142;28;20257;-84
2021/11/27 05:14:50;;;;;;;3.00;2.80;;;;;;;2.84;78.44;93086.03;5000649;28;20207;-85
2021/11/27 05:17:16;;;;;;;4.40;3.40;;;;;;;2.86;78.93;93079.00;5000280;28;20207;-84
2021/11/27 05:19:43;;;;;;;3.47;3.17;;;;;;;2.89;78.75;93088.75;5000208;28;20219;-84
2021/11/27 05:22:09;;;;;;;3.40;3.10;;;;;;;2.93;78.75;93079.78;5000171;28;20207;-84
2021/11/27 05:24:36;;;;;;;3.77;2.90;;;;;;;2.97;78.44;93077.66;4999940;28;20191;-85
2021/11/27 05:27:02;;;;;;;3.80;3.40;;;;;;;2.99;78.40;93075.69;4999562;28;20230;-84
2021/11/27 05:29:29;;;;;;;3.33;3.03;;;;;;;3.03;78.38;93082.75;4999744;28;20203;-84
2021/11/27 05:32:03;;;;;;;4.03;3.60;;;;;;;2.98;78.33;93076.69;4999215;28;20207;-84
2021/11/27 05:34:36;;;;;;;3.87;3.30;;;;;;;2.95;78.75;93071.97;4999410;28;20215;-84
2021/11/27 05:37:05;;;;;;;3.50;3.20;;;;;;;2.83;79.16;93064.13;4999555;28;20199;-84
2021/11/27 05:39:32;;;;;;;3.50;3.17;;;;;;;2.86;79.70;93068.06;4978421;28;20697;-84
2021/11/27 05:41:59;;;;;;;3.40;3.10;;;;;;;2.87;80.05;93065.31;5017212;23;20227;-84
2021/11/27 05:44:25;;;;;;;4.20;3.07;;;;;;;2.84;79.98;93060.63;4971309;28;20208;-84
2021/11/27 05:46:52;;;;;;;4.00;3.50;;;;;;;2.91;80.00;93079.19;4978443;28;20224;-85
2021/11/27 05:49:20;;;;;;;4.70;3.30;;;;;;;2.86;79.93;93073.91;4978651;28;20200;-83
2021/11/27 05:51:47;;;;;;;3.43;3.13;;;;;;;2.91;80.28;93075.88;4978057;28;20223;-83
2021/11/27 05:54:14;;;;;;;3.70;3.30;;;;;;;2.90;80.47;93075.09;4978986;28;20212;-84
2021/11/27 05:56:40;;;;;;;3.40;3.10;;;;;;;2.91;80.13;93069.03;4978368;28;20203;-83
2021/11/27 05:59:07;;;;;;;3.63;3.33;;;;;;;2.86;80.46;93076.47;4978908;28;20207;-83
2021/11/27 06:01:34;;;;;;;3.87;3.10;;;;;;;2.95;80.44;93077.84;4978540;28;20227;-85
2021/11/27 06:04:01;;;;;;;3.50;3.20;;;;;;;2.99;79.79;93075.69;4978666;28;20208;-83
2021/11/27 06:06:29;;;;;;;3.87;3.57;;;;;;;3.02;79.92;93068.47;4978701;28;20232;-82
2021/11/27 06:08:55;;;;;;;3.43;3.03;;;;;;;3.10;79.92;93075.13;4978303;28;20200;-84
2021/11/27 06:11:22;;;;;;;3.50;3.20;;;;;;;3.19;79.64;93085.91;4978400;28;20220;-82
2021/11/27 06:13:49;;;;;;;3.17;2.87;;;;;;;3.22;78.97;93088.84;4977775;28;20224;-84
2021/11/27 06:16:15;;;;;;;3.73;3.40;;;;;;;3.26;78.53;93099.44;4977601;28;20287;-85
2021/11/27 06:18:42;;;;;;;3.60;3.30;;;;;;;3.27;78.79;93098.47;4977980;28;20203;-85
2021/11/27 06:21:08;;;;;;;4.03;3.40;;;;;;;3.16;79.89;93092.16;4982438;28;20246;-84
2021/11/27 06:23:36;;;;;;;4.07;3.30;;;;;;;3.80;100.00;93104.34;4977653;28;20204;-84
2021/11/27 06:26:03;;;;;;;5.40;3.50;;;;;;;3.78;80.25;93096.91;4977010;28;20203;-82
2021/11/27 06:28:31;;;;;;;3.77;3.43;;;;;;;3.69;79.53;93115.09;4976875;28;20231;-82
2021/11/27 06:30:58;;;;;;;5.30;3.77;;;;;;;3.72;79.40;93125.69;4976883;28;20635;-84
2021/11/27 06:33:24;;;;;;;3.97;3.57;;;;;;;3.77;78.65;93120.00;4975875;28;20227;-82
2021/11/27 06:35:51;;;;;;;4.90;3.80;;;;;;;3.72;79.09;93132.53;4976588;28;20196;-84
2021/11/27 06:38:19;;;;;;;4.63;3.40;;;;;;;3.81;78.42;93141.56;4977372;28;20251;-84
2021/11/27 06:40:47;;;;;;;4.30;3.17;;;;;;;3.84;78.41;93151.34;4976734;28;20251;-83
2021/11/27 06:43:13;;;;;;;4.40;3.47;;;;;;;3.91;78.22;93149.56;4975588;28;20580;-84
2021/11/27 06:45:40;;;;;;;3.90;3.40;;;;;;;3.94;77.78;93140.75;4975753;28;20211;-85
2021/11/27 06:48:06;;;;;;;5.80;3.80;;;;;;;3.96;76.82;93157.41;4976333;28;20227;-85
2021/11/27 06:50:33;;;;;;;3.70;3.40;;;;;;;3.96;76.97;93166.81;4976229;28;20203;-83
2021/11/27 06:52:59;;;;;;;3.70;3.33;;;;;;;3.96;77.04;93167.59;4976866;28;20216;-85
2021/11/27 06:55:26;;;;;;;4.03;3.60;;;;;;;3.97;77.01;93166.63;4975812;28;20208;-83
2021/11/27 06:57:53;;;;;;;3.80;3.47;;;;;;;3.98;77.06;93180.13;4975296;28;20677;-83
2021/11/27 07:00:20;;;;;;;3.67;3.30;;;;;;;3.90;77.00;93178.53;4976507;28;20211;-84
2021/11/27 07:02:46;;;;;;;5.10;3.60;;;;;;;3.92;77.32;93178.34;4975878;28;20982;-80
2021/11/27 07:05:13;;;;;;;3.60;3.30;;;;;;;3.86;77.00;93182.44;4975381;28;20212;-85
2021/11/27 07:07:39;;;;;;;3.60;3.30;;;;;;;3.86;77.36;93195.16;4956681;28;20318;-82
2021/11/27 07:10:07;;;;;;;3.13;2.83;;;;;;;3.93;77.25;93177.38;4974037;28;20211;-84
2021/11/27 07:12:33;;;;;;;3.73;3.33;;;;;;;3.84;77.85;93181.09;4974047;28;20216;-83
2021/11/27 07:15:03;;;;;;;3.43;3.13;;;;;;;3.89;77.68;93186.38;4974792;28;20207;-85
2021/11/27 07:17:30;;;;;;;3.43;3.13;;;;;;;3.83;78.16;93171.91;4967066;28;20203;-85
2021/11/27 07:19:57;;;;;;;4.03;3.20;;;;;;;3.69;78.86;93168.53;4992298;28;20207;-81
2021/11/27 07:22:23;;;;;;;3.53;3.20;;;;;;;3.61;79.28;93153.47;4980671;28;20216;-84
2021/11/27 07:24:50;;;;;;;3.27;2.97;;;;;;;3.60;79.29;93157.78;4972816;28;20196;-84
2021/11/27 07:27:16;;;;;;;3.87;3.50;;;;;;;3.64;79.44;93145.47;4972904;28;20602;-81
2021/11/27 07:29:43;;;;;;;4.00;3.50;;;;;;;3.63;79.63;93154.06;4973675;28;20232;-85
2021/11/27 07:32:11;;;;;;;3.73;3.20;;;;;;;3.65;78.89;93155.44;4972873;28;20224;-80
2021/11/27 07:34:37;;;;;;;3.80;3.40;;;;;;;3.73;78.35;93165.41;4972280;28;20208;-81
2021/11/27 07:37:04;;;;;;;3.53;3.13;;;;;;;3.85;78.03;93163.06;4972810;28;20258;-84
2021/11/27 07:39:31;;;;;;;3.67;3.37;;;;;;;3.94;78.15;93159.34;4971818;28;20200;-85
2021/11/27 07:41:58;;;;;;;3.70;3.30;;;;;;;3.98;78.11;93175.03;4971826;28;20296;-84
2021/11/27 07:44:26;;;;;;;3.17;2.87;;;;;;;3.98;77.21;93172.47;4972865;28;20216;-84
2021/11/27 07:46:56;;;;;;;4.13;3.20;;;;;;;3.90;77.83;93173.44;4973378;28;20234;-84
2021/11/27 07:49:25;;;;;;;4.20;3.30;;;;;;;3.99;77.88;93189.31;4973466;28;20660;-85
2021/11/27 07:51:52;;;;;;;4.63;3.10;;;;;;;4.05;77.57;93191.84;4972505;28;20216;-84
2021/11/27 07:54:19;;;;;;;7.30;3.57;;;;;;;4.12;77.64;93189.31;4975307;28;20199;-84
2021/11/27 07:56:48;;;;;;;6.00;4.00;;;;;;;4.05;77.72;93186.75;4992926;28;20207;-85
2021/11/27 07:59:15;;;;;;;7.17;4.20;;;;;;;4.05;77.77;93196.16;4981118;28;20207;-84
2021/11/27 08:01:41;;;;;;;11.53;4.10;;;;;;;4.06;78.21;93190.88;4972783;28;20216;-83
2021/11/27 08:04:08;;;;;;;5.80;3.77;;;;;;;3.95;78.66;93198.31;4973014;28;20275;-83
2021/11/27 08:06:36;;;;;;;9.63;3.97;;;;;;;3.93;78.54;93202.81;4972124;28;20753;-81
2021/11/27 08:09:02;;;;;;;6.23;3.63;;;;;;;3.86;79.11;93189.28;4972932;28;20228;-82
2021/11/27 08:11:28;;;;;;;4.13;3.37;;;;;;;3.75;79.45;93191.44;4971795;28;20742;-83
2021/11/27 08:13:55;;;;;;;14.27;7.43;;;;;;;3.83;80.96;93198.13;4972407;28;20200;-84
2021/11/27 08:16:22;;;;;;;8.23;4.20;;;;;;;3.93;79.30;93195.19;4972320;28;20228;-84
2021/11/27 08:18:48;;;;;;;5.70;3.77;;;;;;;3.96;78.94;93194.81;4972478;28;20204;-83
2021/11/27 08:21:15;;;;;;;7.97;3.73;;;;;;;3.95;78.75;93191.47;4971787;28;20223;-84
2021/11/27 08:23:43;;;;;;;4.23;3.43;;;;;;;3.88;79.88;93194.97;4972492;28;20204;-84
2021/11/27 08:26:09;;;;;;;4.50;3.63;;;;;;;3.94;79.59;93199.31;4971769;28;20235;-84
2021/11/27 08:28:36;;;;;;;4.07;3.63;;;;;;;4.03;78.88;93205.78;4972347;28;20231;-84
2021/11/27 08:31:03;;;;;;;4.10;3.60;;;;;;;4.11;78.40;93203.03;4971244;28;20200;-83
2021/11/27 08:33:29;;;;;;;4.80;4.40;;;;;;;4.20;77.77;93201.88;4968482;28;20216;-82
2021/11/27 08:35:56;;;;;;;3.93;3.53;;;;;;;4.17;77.36;93207.34;4971391;28;20735;-83
2021/11/27 08:38:26;;;;;;;5.60;3.60;;;;;;;4.11;78.10;93206.34;4973279;28;20204;-80
2021/11/27 08:40:54;;;;;;;5.07;3.47;;;;;;;4.09;78.10;93213.41;4972313;28;20211;-83
2021/11/27 08:43:20;;;;;;;4.30;3.90;;;;;;;4.16;77.71;93210.88;4974349;28;20204;-84
2021/11/27 08:45:49;;;;;;;3.80;3.47;;;;;;;4.09;77.97;93222.81;4973041;28;20200;-79
2021/11/27 08:48:15;;;;;;;3.80;3.40;;;;;;;4.05;78.12;93229.25;4973915;28;20239;-82
2021/11/27 08:50:42;;;;;;;4.23;3.50;;;;;;;4.15;78.04;93232.22;4973293;28;20208;-83
2021/11/27 08:53:08;;;;;;;3.23;2.93;;;;;;;4.16;77.84;93233.78;4974933;28;20225;-85
2021/11/27 08:55:35;;;;;;;3.40;3.10;;;;;;;4.16;77.57;93229.47;4975567;28;20196;-86
2021/11/27 08:58:03;;;;;;;4.07;3.67;;;;;;;4.23;77.76;93233.81;4974246;28;20200;-84
2021/11/27 09:00:30;;;;;;;3.63;3.33;;;;;;;4.22;77.64;93239.88;4973080;28;20211;-85
2021/11/27 09:02:57;;;;;;;4.67;3.57;;;;;;;4.10;78.36;93248.06;4972628;28;20239;-84
2021/11/27 09:05:24;;;;;;;3.50;3.20;;;;;;;4.11;78.46;93252.19;4973042;28;20226;-82
2021/11/27 09:07:51;;;;;;;4.20;3.73;;;;;;;4.02;79.11;93244.94;4971931;28;20698;-86
2021/11/27 09:10:18;;;;;;;3.77;3.17;;;;;;;4.09;78.88;93253.34;4973670;28;20244;-85
2021/11/27 09:12:45;;;;;;;6.23;3.30;;;;;;;4.15;78.59;93250.03;4973240;28;20220;-85
2021/11/27 09:15:15;;;;;;;5.80;4.27;;;;;;;4.14;78.78;93251.00;4974973;28;20213;-82
2021/11/27 09:17:41;;;;;;;3.80;3.27;;;;;;;4.24;78.49;93264.13;4976043;28;20207;-85
2021/11/27 09:20:09;;;;;;;5.70;4.20;;;;;;;4.24;78.78;93266.69;4976602;28;20215;-83
2021/11/27 09:22:35;;;;;;;5.17;3.70;;;;;;;4.27;77.79;93275.69;4973946;28;20942;-85
2021/11/27 09:25:02;;;;;;;5.87;3.70;;;;;;;4.26;78.47;93272.38;4976364;28;20569;-84
2021/11/27 09:27:28;;;;;;;5.37;3.40;;;;;;;4.27;78.56;93281.56;4975265;28;20204;-83
2021/11/27 09:29:55;;;;;;;9.10;4.03;;;;;;;4.33;79.56;93274.94;4975536;28;20810;-83
2021/11/27 09:32:23;;;;;;;4.00;3.60;;;;;;;4.41;79.16;93277.28;4976510;28;20228;-85
2021/11/27 09:34:50;;;;;;;4.07;3.53;;;;;;;4.45;78.13;93275.91;4976141;28;20272;-83
2021/11/27 09:37:18;;;;;;;7.10;3.77;;;;;;;4.40;77.73;93276.50;4976159;28;20299;-86
2021/11/27 09:39:46;;;;;;;12.70;4.20;;;;;;;4.39;77.86;93279.25;4974966;28;20659;-84
2021/11/27 09:42:14;;;;;;;6.77;3.80;;;;;;;4.39;78.16;93276.69;4975050;28;20271;-84
2021/11/27 09:44:46;;;;;;;6.80;3.87;;;;;;;4.48;78.04;93273.75;4975443;28;20204;-84
2021/11/27 09:47:14;;;;;;;6.63;4.23;;;;;;;4.43;77.70;93282.94;4971479;28;20205;-84
2021/11/27 09:49:43;;;;;;;5.07;3.53;;;;;;;4.34;78.07;93282.38;4975048;28;20224;-83
2021/11/27 09:52:10;;;;;;;3.83;3.30;;;;;;;4.31;78.11;93289.63;4975772;28;20216;-85
2021/11/27 09:54:37;;;;;;;4.70;3.80;;;;;;;4.30;78.87;93295.69;4979937;28;20196;-83
2021/11/27 09:57:07;;;;;;;4.20;3.30;;;;;;;4.33;78.58;93293.53;4976061;28;20208;-85
2021/11/27 09:59:33;;;;;;;3.50;3.07;;;;;;;4.34;78.43;93292.56;4975772;28;20215;-81
2021/11/27 10:02:00;;;;;;;3.67;3.37;;;;;;;4.41;78.22;93282.38;4975360;28;20231;-84
2021/11/27 10:04:31;;;;;;;3.60;3.30;;;;;;;4.44;79.79;93275.13;4975427;28;20192;-82
2021/11/27 10:07:00;;;;;;;3.83;3.50;;;;;;;4.47;79.19;93279.81;4974720;28;20311;-84
2021/11/27 10:09:26;;;;;;;3.27;2.97;;;;;;;4.50;78.98;93282.00;4974940;28;20229;-84
2021/11/27 10:11:55;;;;;;;3.27;2.97;;;;;;;4.50;78.72;93286.28;4974429;28;20716;-84
2021/11/27 10:14:22;;;;;;;3.00;2.70;;;;;;;4.49;78.85;93290.59;4973465;28;20196;-82
2021/11/27 10:17:12;;;;;;;4.77;2.90;;;;;;;4.53;78.57;93290.22;4975917;28;20200;-82
2021/11/27 10:19:56;;;;;;;2.80;2.60;;;;;;;4.48;78.53;93283.94;4974809;28;20262;-82
2021/11/27 10:22:27;;;;;;;3.00;2.70;;;;;;;4.48;79.43;93280.59;4974892;28;20231;-82
2021/11/27 10:24:54;;;;;;;4.53;3.10;;;;;;;4.51;78.96;93275.91;4974316;28;20216;-82
2021/11/27 10:27:24;;;;;;;3.67;2.97;;;;;;;4.48;79.08;93262.78;4974236;28;20200;-82
2021/11/27 10:30:05;;;;;;;3.10;2.77;;;;;;;4.55;79.15;93268.66;4956207;29;20374;-82
2021/11/27 10:32:36;;;;;;;3.53;2.93;;;;;;;4.64;78.35;93264.91;4967466;28;20729;-81
2021/11/27 10:35:05;;;;;;;3.40;2.77;;;;;;;4.73;78.29;93263.75;4974979;28;20563;-84
2021/11/27 10:37:37;;;;;;;3.10;2.80;;;;;;;4.74;78.27;93270.41;4974842;28;20211;-82
2021/11/27 10:40:07;;;;;;;3.20;2.90;;;;;;;4.79;78.17;93282.56;4974951;28;20259;-84
2021/11/27 10:42:35;;;;;;;3.30;2.90;;;;;;;4.86;77.53;93275.69;4973625;28;20236;-85
2021/11/27 10:45:13;;;;;;;2.90;2.60;;;;;;;4.83;77.14;93271.75;4975599;28;20200;-82
2021/11/27 10:47:40;;;;;;;4.33;2.90;;;;;;;4.88;76.93;93278.81;4975329;28;20208;-82
2021/11/27 10:50:09;;;;;;;3.03;2.73;;;;;;;4.91;76.46;93272.53;4974425;28;20872;-83
2021/11/27 10:52:38;;;;;;;3.70;2.77;;;;;;;4.98;76.60;93274.13;4974245;28;20697;-85
2021/11/27 10:55:17;;;;;;;3.47;2.90;;;;;;;5.03;76.04;93274.28;4984019;28;20660;-83
2021/11/27 10:57:44;;;;;;;2.77;2.50;;;;;;;5.05;75.56;93274.09;4981235;28;20674;-84
2021/11/27 11:00:26;;;;;;;3.67;2.53;;;;;;;5.09;75.61;93275.25;4974384;28;20196;-85
2021/11/27 11:02:54;;;;;;;2.77;2.53;;;;;;;5.11;75.28;93271.53;4974375;28;20216;-84
2021/11/27 11:05:20;;;;;;;3.63;2.37;;;;;;;5.13;76.05;93272.13;4974327;28;20231;-84
2021/11/27 11:07:55;;;;;;;3.13;2.83;;;;;;;5.15;76.24;93265.06;4974540;28;20232;-84
2021/11/27 11:10:24;;;;;;;3.33;2.70;;;;;;;5.16;75.43;93286.25;4974314;28;20222;-83
2021/11/27 11:12:53;;;;;;;3.20;2.80;;;;;;;5.16;75.29;93271.72;4972428;28;20294;-84
2021/11/27 11:15:25;;;;;;;4.17;2.83;;;;;;;5.21;75.66;93271.88;4973622;28;20583;-85
2021/11/27 11:17:54;;;;;;;3.17;2.80;;;;;;;5.20;75.77;93272.88;4973830;28;20193;-83
2021/11/27 11:20:26;;;;;;;3.10;2.80;;;;;;;5.20;75.37;93272.88;4973773;28;20826;-82
2021/11/27 11:23:09;;;;;;;78.57;36.47;;;;;;;5.24;77.93;93264.81;4972087;28;20278;-83
2021/11/27 11:25:39;;;;;;;3.30;3.00;;;;;;;5.23;75.45;93274.22;4973247;28;20204;-85
2021/11/27 11:28:15;;;;;;;3.43;3.00;;;;;;;5.29;76.11;93267.56;4972916;28;20396;-84
2021/11/27 11:30:45;;;;;;;3.10;2.80;;;;;;;5.27;75.70;93262.66;4973225;28;20204;-85
2021/11/27 11:33:13;;;;;;;3.17;2.87;;;;;;;5.26;75.89;93260.31;4973471;28;20248;-84
2021/11/27 11:35:40;;;;;;;4.83;4.33;;;;;;;5.15;76.31;93264.28;4972847;28;20263;-85
2021/11/27 11:38:11;;;;;;;3.73;3.40;;;;;;;5.20;76.68;93277.97;4974272;28;20196;-83
2021/11/27 11:40:38;;;;;;;3.17;2.87;;;;;;;5.23;76.49;93266.59;4973838;28;20235;-83
2021/11/27 11:43:05;;;;;;;3.10;2.70;;;;;;;5.21;76.88;93259.13;4977550;28;20228;-82
2021/11/27 11:45:32;;;;;;;3.40;3.00;;;;;;;5.28;77.07;93264.22;4979576;28;20211;-85